To NAV CANADA Home Page Login to a new session Search on AWWS site Disclaimer Vers la page française équivalente Tips FAQ What's new on the site To the Forecasts and Observations / NOTAM section To "File a Flight Plan" website Publications and other links Update of the User's profile FIC Telephone Numbers My Weather Data Folder Route Weather Data Regional Weather Data Local Weather Data To the Forecasts and Observations / NOTAM section
Request Generated 02/01/2023 at 06:59:04 UTC . Weather information available at that time is displayed.

METAR/TAF

If you find any discrepancies between the coded METAR/TAF and the plain language METAR/TAF please use the coded METAR/TAF. LWIS bulletins are not decoded in plain language.

TORONTO/LESTER B. PEARSON INTL/ON    

METAR CYYZ 010600Z 26006KT 15SM SKC M14/M18 A3023 RMK SLP253=
METAR
LOCATION
CYYZ - TORONTO/LESTER B. PEARSON INTL/ON
DATE - TIME
01 FEBRUARY 2023 - 0600 UTC
WIND
260 TRUE @ 6  KNOTS
VISIBILITY
15 STAT.  MILES
RUNWAY VISUAL RANGE
WEATHER
CLOUDINESS
CLEAR SKY
TEMP / DEWPOINT
-14 C / -18 C
ALTIMETER
30.23 IN HG
RECENT WEATHER
WIND SHEAR

METAR CYYZ 010500Z 28006KT 15SM SKC M12/M16 A3025 RMK SLP259=
METAR
LOCATION
CYYZ - TORONTO/LESTER B. PEARSON INTL/ON
DATE - TIME
01 FEBRUARY 2023 - 0500 UTC
WIND
280 TRUE @ 6  KNOTS
VISIBILITY
15 STAT.  MILES
RUNWAY VISUAL RANGE
WEATHER
CLOUDINESS
CLEAR SKY
TEMP / DEWPOINT
-12 C / -16 C
ALTIMETER
30.25 IN HG
RECENT WEATHER
WIND SHEAR

METAR CYYZ 010400Z 29007KT 15SM FEW120 M11/M15 A3026 RMK AC1 AC TR SLP261=
METAR
LOCATION
CYYZ - TORONTO/LESTER B. PEARSON INTL/ON
DATE - TIME
01 FEBRUARY 2023 - 0400 UTC
WIND
290 TRUE @ 7  KNOTS
VISIBILITY
15 STAT.  MILES
RUNWAY VISUAL RANGE
WEATHER
CLOUDINESS
FEW CLOUDS (1/8 - 2/8) 12000  FT
TEMP / DEWPOINT
-11 C / -15 C
ALTIMETER
30.26 IN HG
RECENT WEATHER
WIND SHEAR

Your time UTC time
Weather data provided by Environment Canada and NAV CANADA